sensor_id;sensor_type;location;lat;lon;timestamp;pressure;altitude;pressure_sealevel;temperature;humidity
9695;BME280;4690;52.422;13.486;2023-02-28T00:05:54;102865.78;;;3.61;67.48
9695;BME280;4690;52.422;13.486;2023-02-28T00:08:20;102872.06;;;3.61;67.13
9695;BME280;4690;52.422;13.486;2023-02-28T00:10:45;102863.44;;;3.56;67.70
9695;BME280;4690;52.422;13.486;2023-02-28T00:13:11;102862.19;;;3.60;67.17
9695;BME280;4690;52.422;13.486;2023-02-28T00:15:37;102868.22;;;3.64;67.44
9695;BME280;4690;52.422;13.486;2023-02-28T00:18:03;102872.44;;;3.56;67.36
9695;BME280;4690;52.422;13.486;2023-02-28T00:20:29;102872.19;;;3.48;68.05
9695;BME280;4690;52.422;13.486;2023-02-28T00:22:55;102867.16;;;3.55;67.61
9695;BME280;4690;52.422;13.486;2023-02-28T00:25:25;102873.91;;;3.61;67.46
9695;BME280;4690;52.422;13.486;2023-02-28T00:27:51;102865.53;;;3.64;67.13
9695;BME280;4690;52.422;13.486;2023-02-28T00:30:21;102869.09;;;3.64;66.72
9695;BME280;4690;52.422;13.486;2023-02-28T00:32:48;102863.13;;;3.70;66.38
9695;BME280;4690;52.422;13.486;2023-02-28T00:35:14;102862.75;;;3.75;66.23
9695;BME280;4690;52.422;13.486;2023-02-28T00:37:41;102871.16;;;3.72;66.31
9695;BME280;4690;52.422;13.486;2023-02-28T00:40:09;102871.84;;;3.53;66.66
9695;BME280;4690;52.422;13.486;2023-02-28T00:42:35;102873.16;;;3.58;67.00
9695;BME280;4690;52.422;13.486;2023-02-28T00:45:02;102872.91;;;3.62;66.54
9695;BME280;4690;52.422;13.486;2023-02-28T00:47:30;102865.91;;;3.59;66.61
9695;BME280;4690;52.422;13.486;2023-02-28T00:49:56;102873.03;;;3.60;66.74
9695;BME280;4690;52.422;13.486;2023-02-28T00:52:22;102871.91;;;3.63;66.64
9695;BME280;4690;52.422;13.486;2023-02-28T00:54:48;102869.47;;;3.59;67.07
9695;BME280;4690;52.422;13.486;2023-02-28T00:57:13;102872.06;;;3.61;67.09
9695;BME280;4690;52.422;13.486;2023-02-28T00:59:39;102874.28;;;3.56;66.97
9695;BME280;4690;52.422;13.486;2023-02-28T01:02:05;102869.34;;;3.61;67.13
9695;BME280;4690;52.422;13.486;2023-02-28T01:04:31;102876.09;;;3.67;67.38
9695;BME280;4690;52.422;13.486;2023-02-28T01:06:56;102877.69;;;3.69;67.15
9695;BME280;4690;52.422;13.486;2023-02-28T01:09:22;102879.34;;;3.61;67.03
9695;BME280;4690;52.422;13.486;2023-02-28T01:11:48;102872.31;;;3.58;67.13
9695;BME280;4690;52.422;13.486;2023-02-28T01:14:16;102858.75;;;3.58;67.31
9695;BME280;4690;52.422;13.486;2023-02-28T01:16:43;102865.28;;;3.55;67.17
9695;BME280;4690;52.422;13.486;2023-02-28T01:19:09;102866.75;;;3.59;67.38
9695;BME280;4690;52.422;13.486;2023-02-28T01:21:35;102869.09;;;3.64;66.64
9695;BME280;4690;52.422;13.486;2023-02-28T01:24:03;102863.78;;;3.63;67.24
9695;BME280;4690;52.422;13.486;2023-02-28T01:26:29;102867.19;;;3.44;67.45
9695;BME280;4690;52.422;13.486;2023-02-28T01:28:55;102865.34;;;3.33;67.65
9695;BME280;4690;52.422;13.486;2023-02-28T01:31:22;102860.44;;;3.38;67.30
9695;BME280;4690;52.422;13.486;2023-02-28T01:33:48;102863.00;;;3.40;67.91
9695;BME280;4690;52.422;13.486;2023-02-28T01:36:20;102854.13;;;3.37;67.29
9695;BME280;4690;52.422;13.486;2023-02-28T01:38:47;102851.66;;;3.34;67.61
9695;BME280;4690;52.422;13.486;2023-02-28T01:41:27;102846.75;;;3.28;67.78
9695;BME280;4690;52.422;13.486;2023-02-28T01:46:50;102851.63;;;3.02;68.86
9695;BME280;4690;52.422;13.486;2023-02-28T01:49:17;102853.22;;;3.05;69.31
9695;BME280;4690;52.422;13.486;2023-02-28T01:51:47;102852.13;;;3.07;68.84
9695;BME280;4690;52.422;13.486;2023-02-28T01:54:27;102855.78;;;3.06;68.96
9695;BME280;4690;52.422;13.486;2023-02-28T01:57:08;102855.19;;;3.03;68.59
9695;BME280;4690;52.422;13.486;2023-02-28T01:59:39;102859.16;;;2.99;68.85
9695;BME280;4690;52.422;13.486;2023-02-28T02:02:20;102860.13;;;2.98;69.24
9695;BME280;4690;52.422;13.486;2023-02-28T02:05:10;102865.78;;;2.95;69.23
9695;BME280;4690;52.422;13.486;2023-02-28T02:07:41;102855.31;;;2.90;69.65
9695;BME280;4690;52.422;13.486;2023-02-28T02:10:16;102859.00;;;2.89;69.73
9695;BME280;4690;52.422;13.486;2023-02-28T02:25:45;102859.41;;;2.62;70.67
9695;BME280;4690;52.422;13.486;2023-02-28T02:29:31;102850.53;;;2.60;71.14
9695;BME280;4690;52.422;13.486;2023-02-28T02:32:03;102853.00;;;2.63;71.00
9695;BME280;4690;52.422;13.486;2023-02-28T02:37:27;102857.91;;;2.58;71.55
9695;BME280;4690;52.422;13.486;2023-02-28T02:40:30;102855.56;;;2.53;71.41
9695;BME280;4690;52.422;13.486;2023-02-28T02:43:19;102848.94;;;2.46;71.68
9695;BME280;4690;52.422;13.486;2023-02-28T02:45:56;102848.69;;;2.38;71.72
9695;BME280;4690;52.422;13.486;2023-02-28T02:48:32;102838.44;;;2.30;71.99
9695;BME280;4690;52.422;13.486;2023-02-28T02:51:04;102848.91;;;2.23;72.25
9695;BME280;4690;52.422;13.486;2023-02-28T02:53:47;102848.63;;;2.15;71.72
9695;BME280;4690;52.422;13.486;2023-02-28T02:56:22;102855.28;;;2.11;72.63
9695;BME280;4690;52.422;13.486;2023-02-28T02:58:52;102856.63;;;2.06;72.15
9695;BME280;4690;52.422;13.486;2023-02-28T03:01:22;102854.50;;;1.98;72.37
9695;BME280;4690;52.422;13.486;2023-02-28T03:04:01;102863.19;;;1.90;72.44
9695;BME280;4690;52.422;13.486;2023-02-28T03:06:28;102851.13;;;1.83;73.04
9695;BME280;4690;52.422;13.486;2023-02-28T03:08:54;102853.34;;;1.78;73.71
9695;BME280;4690;52.422;13.486;2023-02-28T03:11:20;102857.13;;;1.75;73.64
9695;BME280;4690;52.422;13.486;2023-02-28T03:14:25;102856.94;;;1.66;74.21
9695;BME280;4690;52.422;13.486;2023-02-28T03:25:29;102873.69;;;1.47;74.62
9695;BME280;4690;52.422;13.486;2023-02-28T03:28:56;102865.59;;;1.47;75.25
9695;BME280;4690;52.422;13.486;2023-02-28T03:31:16;102870.47;;;1.42;75.15
9695;BME280;4690;52.422;13.486;2023-02-28T03:33:57;102874.03;;;1.42;74.69
9695;BME280;4690;52.422;13.486;2023-02-28T03:36:38;102866.25;;;1.38;74.86
9695;BME280;4690;52.422;13.486;2023-02-28T03:39:25;102865.63;;;1.34;75.31
9695;BME280;4690;52.422;13.486;2023-02-28T03:42:07;102869.44;;;1.31;76.05
9695;BME280;4690;52.422;13.486;2023-02-28T03:44:45;102880.59;;;1.27;75.91
9695;BME280;4690;52.422;13.486;2023-02-28T03:50:05;102872.28;;;1.17;76.26
9695;BME280;4690;52.422;13.486;2023-02-28T03:52:41;102877.06;;;1.14;75.88
9695;BME280;4690;52.422;13.486;2023-02-28T03:55:13;102876.28;;;1.11;76.05
9695;BME280;4690;52.422;13.486;2023-02-28T03:58:12;102869.91;;;1.12;76.56
9695;BME280;4690;52.422;13.486;2023-02-28T04:00:53;102872.84;;;1.09;76.74
9695;BME280;4690;52.422;13.486;2023-02-28T04:03:21;102862.25;;;1.06;76.56
9695;BME280;4690;52.422;13.486;2023-02-28T04:05:54;102871.69;;;1.01;76.34
9695;BME280;4690;52.422;13.486;2023-02-28T04:08:22;102866.63;;;0.96;76.31
9695;BME280;4690;52.422;13.486;2023-02-28T04:13:49;102873.56;;;0.87;76.54
9695;BME280;4690;52.422;13.486;2023-02-28T04:16:15;102883.28;;;0.77;77.20
9695;BME280;4690;52.422;13.486;2023-02-28T04:18:44;102880.81;;;0.74;77.64
9695;BME280;4690;52.422;13.486;2023-02-28T04:21:11;102888.91;;;0.74;77.44
9695;BME280;4690;52.422;13.486;2023-02-28T04:23:37;102878.19;;;0.73;77.35
9695;BME280;4690;52.422;13.486;2023-02-28T04:26:03;102880.47;;;0.79;77.85
9695;BME280;4690;52.422;13.486;2023-02-28T04:28:29;102883.28;;;0.77;77.06
9695;BME280;4690;52.422;13.486;2023-02-28T04:30:57;102882.75;;;0.72;77.67
9695;BME280;4690;52.422;13.486;2023-02-28T04:33:23;102889.13;;;0.71;77.29
9695;BME280;4690;52.422;13.486;2023-02-28T04:35:59;102887.50;;;0.69;77.67
9695;BME280;4690;52.422;13.486;2023-02-28T04:38:25;102887.59;;;0.67;77.50
9695;BME280;4690;52.422;13.486;2023-02-28T04:40:51;102882.31;;;0.65;77.45
9695;BME280;4690;52.422;13.486;2023-02-28T04:43:16;102888.69;;;0.64;77.57
9695;BME280;4690;52.422;13.486;2023-02-28T04:45:42;102887.41;;;0.57;77.19
9695;BME280;4690;52.422;13.486;2023-02-28T04:48:08;102896.56;;;0.55;78.32
9695;BME280;4690;52.422;13.486;2023-02-28T04:50:34;102892.88;;;0.56;78.23
9695;BME280;4690;52.422;13.486;2023-02-28T04:52:59;102895.81;;;0.53;77.66
9695;BME280;4690;52.422;13.486;2023-02-28T04:55:25;102899.59;;;0.50;78.30
9695;BME280;4690;52.422;13.486;2023-02-28T04:57:51;102897.97;;;0.48;78.62
9695;BME280;4690;52.422;13.486;2023-02-28T05:00:17;102901.63;;;0.47;78.20
9695;BME280;4690;52.422;13.486;2023-02-28T05:02:43;102898.09;;;0.46;78.18
9695;BME280;4690;52.422;13.486;2023-02-28T05:05:09;102897.31;;;0.44;78.15
9695;BME280;4690;52.422;13.486;2023-02-28T05:07:34;102900.88;;;0.44;78.61
9695;BME280;4690;52.422;13.486;2023-02-28T05:10:00;102905.63;;;0.41;78.06
9695;BME280;4690;52.422;13.486;2023-02-28T05:12:26;102895.69;;;0.41;77.89
9695;BME280;4690;52.422;13.486;2023-02-28T05:14:51;102905.72;;;0.39;77.67
9695;BME280;4690;52.422;13.486;2023-02-28T05:17:17;102909.63;;;0.35;78.24
9695;BME280;4690;52.422;13.486;2023-02-28T05:19:43;102908.75;;;0.35;78.22
9695;BME280;4690;52.422;13.486;2023-02-28T05:22:16;102908.13;;;0.31;77.97
9695;BME280;4690;52.422;13.486;2023-02-28T05:24:42;102909.91;;;0.31;77.91
9695;BME280;4690;52.422;13.486;2023-02-28T05:27:09;102909.91;;;0.31;77.53
9695;BME280;4690;52.422;13.486;2023-02-28T05:29:35;102909.19;;;0.29;78.23
9695;BME280;4690;52.422;13.486;2023-02-28T05:32:09;102916.59;;;0.25;78.04
9695;BME280;4690;52.422;13.486;2023-02-28T05:34:39;102912.50;;;0.19;77.65
9695;BME280;4690;52.422;13.486;2023-02-28T05:37:11;102914.25;;;0.20;78.15
9695;BME280;4690;52.422;13.486;2023-02-28T05:39:37;102909.81;;;0.19;77.80
9695;BME280;4690;52.422;13.486;2023-02-28T05:42:04;102911.00;;;0.15;77.77
9695;BME280;4690;52.422;13.486;2023-02-28T05:44:30;102918.31;;;0.13;77.58
9695;BME280;4690;52.422;13.486;2023-02-28T05:46:56;102906.03;;;0.09;77.58
9695;BME280;4690;52.422;13.486;2023-02-28T05:49:22;102906.97;;;0.08;78.21
9695;BME280;4690;52.422;13.486;2023-02-28T05:51:47;102923.28;;;0.07;78.08
9695;BME280;4690;52.422;13.486;2023-02-28T05:54:13;102917.22;;;0.03;78.48
9695;BME280;4690;52.422;13.486;2023-02-28T05:56:39;102917.22;;;0.03;78.04
9695;BME280;4690;52.422;13.486;2023-02-28T05:59:06;102918.19;;;0.02;79.08
9695;BME280;4690;52.422;13.486;2023-02-28T06:01:38;102926.28;;;0.02;78.79
9695;BME280;4690;52.422;13.486;2023-02-28T06:04:08;102930.59;;;0.05;78.86
9695;BME280;4690;52.422;13.486;2023-02-28T06:06:35;102923.38;;;0.05;79.19
9695;BME280;4690;52.422;13.486;2023-02-28T06:09:05;102922.63;;;0.03;79.13
9695;BME280;4690;52.422;13.486;2023-02-28T06:11:32;102929.81;;;0.03;79.36
9695;BME280;4690;52.422;13.486;2023-02-28T06:13:59;102924.44;;;0.03;79.10
9695;BME280;4690;52.422;13.486;2023-02-28T06:16:30;102930.50;;;0.06;79.13
9695;BME280;4690;52.422;13.486;2023-02-28T06:19:02;102930.50;;;0.06;79.37
9695;BME280;4690;52.422;13.486;2023-02-28T06:21:29;102936.75;;;0.07;78.98
9695;BME280;4690;52.422;13.486;2023-02-28T06:23:57;102940.09;;;0.10;78.93
9695;BME280;4690;52.422;13.486;2023-02-28T06:26:24;102933.72;;;0.11;79.71
9695;BME280;4690;52.422;13.486;2023-02-28T06:28:49;102940.53;;;0.17;79.28
9695;BME280;4690;52.422;13.486;2023-02-28T06:31:17;102938.50;;;0.20;79.13
9695;BME280;4690;52.422;13.486;2023-02-28T06:33:45;102945.31;;;0.26;79.34
9695;BME280;4690;52.422;13.486;2023-02-28T06:36:13;102952.25;;;0.43;79.90
9695;BME280;4690;52.422;13.486;2023-02-28T06:38:40;102945.13;;;0.67;79.95
9695;BME280;4690;52.422;13.486;2023-02-28T06:41:07;102954.31;;;0.91;79.16
9695;BME280;4690;52.422;13.486;2023-02-28T06:43:37;102958.69;;;1.17;79.61
9695;BME280;4690;52.422;13.486;2023-02-28T06:46:06;102957.78;;;1.42;78.63
9695;BME280;4690;52.422;13.486;2023-02-28T06:48:33;102957.81;;;1.66;78.10
9695;BME280;4690;52.422;13.486;2023-02-28T06:51:19;102962.38;;;1.90;77.02
9695;BME280;4690;52.422;13.486;2023-02-28T06:53:47;102963.47;;;2.11;76.39
9695;BME280;4690;52.422;13.486;2023-02-28T06:56:16;102961.81;;;2.44;75.49
9695;BME280;4690;52.422;13.486;2023-02-28T06:58:47;102967.69;;;2.84;73.78
9695;BME280;4690;52.422;13.486;2023-02-28T07:01:14;102960.72;;;3.16;72.06
9695;BME280;4690;52.422;13.486;2023-02-28T07:03:40;102961.34;;;3.74;70.96
9695;BME280;4690;52.422;13.486;2023-02-28T07:06:06;102973.75;;;4.31;67.77
9695;BME280;4690;52.422;13.486;2023-02-28T07:08:33;102959.66;;;4.89;66.16
9695;BME280;4690;52.422;13.486;2023-02-28T07:10:59;102966.03;;;5.39;63.27
9695;BME280;4690;52.422;13.486;2023-02-28T07:13:25;102964.56;;;5.85;60.25
9695;BME280;4690;52.422;13.486;2023-02-28T07:16:01;102966.38;;;6.45;58.00
9695;BME280;4690;52.422;13.486;2023-02-28T07:18:27;102972.13;;;6.89;56.69
9695;BME280;4690;52.422;13.486;2023-02-28T07:20:53;102964.06;;;7.34;54.63
9695;BME280;4690;52.422;13.486;2023-02-28T07:23:19;102958.38;;;7.83;53.39
9695;BME280;4690;52.422;13.486;2023-02-28T07:25:46;102962.03;;;8.09;50.52
9695;BME280;4690;52.422;13.486;2023-02-28T07:28:13;102955.56;;;8.28;49.43
9695;BME280;4690;52.422;13.486;2023-02-28T07:30:40;102959.88;;;8.75;48.93
9695;BME280;4690;52.422;13.486;2023-02-28T07:33:06;102968.16;;;9.17;47.49
9695;BME280;4690;52.422;13.486;2023-02-28T07:35:32;102961.81;;;9.51;46.06
9695;BME280;4690;52.422;13.486;2023-02-28T07:37:59;102968.00;;;9.53;45.35
9695;BME280;4690;52.422;13.486;2023-02-28T07:40:25;102960.22;;;9.83;45.08
9695;BME280;4690;52.422;13.486;2023-02-28T07:42:51;102967.75;;;9.81;44.33
9695;BME280;4690;52.422;13.486;2023-02-28T07:45:18;102962.91;;;9.67;43.92
9695;BME280;4690;52.422;13.486;2023-02-28T07:47:45;102963.00;;;9.14;43.60
9695;BME280;4690;52.422;13.486;2023-02-28T07:50:14;102966.34;;;9.00;44.48
9695;BME280;4690;52.422;13.486;2023-02-28T07:52:41;102959.84;;;8.93;45.07
9695;BME280;4690;52.422;13.486;2023-02-28T07:55:09;102964.69;;;8.81;44.65
9695;BME280;4690;52.422;13.486;2023-02-28T07:57:35;102959.38;;;8.53;45.00
9695;BME280;4690;52.422;13.486;2023-02-28T08:00:04;102967.75;;;7.71;46.05
9695;BME280;4690;52.422;13.486;2023-02-28T08:02:30;102970.75;;;7.22;47.34
9695;BME280;4690;52.422;13.486;2023-02-28T08:04:56;102976.25;;;7.12;47.01
9695;BME280;4690;52.422;13.486;2023-02-28T08:07:22;102969.78;;;7.13;47.00
9695;BME280;4690;52.422;13.486;2023-02-28T08:09:47;102974.59;;;7.29;45.62
9695;BME280;4690;52.422;13.486;2023-02-28T08:12:13;102977.41;;;7.65;44.86
9695;BME280;4690;52.422;13.486;2023-02-28T08:14:39;102976.69;;;7.91;45.72
9695;BME280;4690;52.422;13.486;2023-02-28T08:17:05;102970.31;;;8.00;44.66
9695;BME280;4690;52.422;13.486;2023-02-28T08:19:32;102976.06;;;8.32;45.00
9695;BME280;4690;52.422;13.486;2023-02-28T08:21:58;102971.56;;;8.41;44.04
9695;BME280;4690;52.422;13.486;2023-02-28T08:24:23;102968.19;;;8.65;43.63
9695;BME280;4690;52.422;13.486;2023-02-28T08:26:49;102974.50;;;9.52;42.22
9695;BME280;4690;52.422;13.486;2023-02-28T08:29:15;102974.66;;;9.16;38.50
9695;BME280;4690;52.422;13.486;2023-02-28T08:31:41;102974.59;;;9.93;38.23
9695;BME280;4690;52.422;13.486;2023-02-28T08:34:14;102976.06;;;10.46;35.60
9695;BME280;4690;52.422;13.486;2023-02-28T08:36:41;102980.19;;;10.67;34.90
9695;BME280;4690;52.422;13.486;2023-02-28T08:39:08;102979.63;;;11.04;34.82
9695;BME280;4690;52.422;13.486;2023-02-28T08:41:34;102978.22;;;11.64;34.11
9695;BME280;4690;52.422;13.486;2023-02-28T08:44:00;102978.31;;;12.10;33.51
9695;BME280;4690;52.422;13.486;2023-02-28T08:46:27;102979.25;;;12.25;32.65
9695;BME280;4690;52.422;13.486;2023-02-28T08:48:55;102973.13;;;12.15;32.31
9695;BME280;4690;52.422;13.486;2023-02-28T08:51:22;102969.78;;;12.28;32.98
9695;BME280;4690;52.422;13.486;2023-02-28T08:54:00;102967.75;;;12.83;32.70
9695;BME280;4690;52.422;13.486;2023-02-28T08:56:28;102969.25;;;12.70;30.96
9695;BME280;4690;52.422;13.486;2023-02-28T08:58:56;102969.78;;;12.51;31.19
9695;BME280;4690;52.422;13.486;2023-02-28T09:01:26;102966.16;;;12.50;29.06
9695;BME280;4690;52.422;13.486;2023-02-28T09:03:54;102963.34;;;12.13;29.51
9695;BME280;4690;52.422;13.486;2023-02-28T09:06:23;102966.72;;;12.00;30.14
9695;BME280;4690;52.422;13.486;2023-02-28T09:08:50;102974.28;;;11.98;29.55
9695;BME280;4690;52.422;13.486;2023-02-28T09:11:16;102973.19;;;12.07;29.49
9695;BME280;4690;52.422;13.486;2023-02-28T09:13:44;102974.97;;;12.00;29.35
9695;BME280;4690;52.422;13.486;2023-02-28T09:16:14;102973.56;;;12.04;29.05
9695;BME280;4690;52.422;13.486;2023-02-28T09:18:40;102976.25;;;12.12;29.10
9695;BME280;4690;52.422;13.486;2023-02-28T09:21:11;102972.59;;;11.97;28.28
9695;BME280;4690;52.422;13.486;2023-02-28T09:23:41;102971.94;;;11.47;28.71
9695;BME280;4690;52.422;13.486;2023-02-28T09:26:07;102970.75;;;10.77;30.14
9695;BME280;4690;52.422;13.486;2023-02-28T09:28:33;102976.06;;;10.79;31.96
9695;BME280;4690;52.422;13.486;2023-02-28T09:30:59;102976.06;;;10.95;31.02
9695;BME280;4690;52.422;13.486;2023-02-28T09:33:25;102977.13;;;10.45;31.14
9695;BME280;4690;52.422;13.486;2023-02-28T09:36:00;102980.38;;;9.74;31.71
9695;BME280;4690;52.422;13.486;2023-02-28T09:38:26;102978.00;;;9.02;33.57
9695;BME280;4690;52.422;13.486;2023-02-28T09:41:01;102976.09;;;9.63;33.29
9695;BME280;4690;52.422;13.486;2023-02-28T09:43:42;102971.34;;;9.90;31.73
9695;BME280;4690;52.422;13.486;2023-02-28T09:46:37;102975.09;;;9.80;31.92
9695;BME280;4690;52.422;13.486;2023-02-28T09:49:13;102968.19;;;8.91;32.22
9695;BME280;4690;52.422;13.486;2023-02-28T09:54:23;102977.34;;;9.08;34.57
9695;BME280;4690;52.422;13.486;2023-02-28T09:57:13;102979.09;;;9.17;34.13
9695;BME280;4690;52.422;13.486;2023-02-28T10:00:05;102970.91;;;8.91;33.31
9695;BME280;4690;52.422;13.486;2023-02-28T10:05:31;102972.28;;;8.87;34.37
9695;BME280;4690;52.422;13.486;2023-02-28T10:08:14;102980.38;;;8.53;35.27
9695;BME280;4690;52.422;13.486;2023-02-28T10:10:48;102978.03;;;7.59;34.95
9695;BME280;4690;52.422;13.486;2023-02-28T10:16:21;102970.47;;;7.53;36.22
9695;BME280;4690;52.422;13.486;2023-02-28T10:18:58;102974.09;;;7.44;36.10
9695;BME280;4690;52.422;13.486;2023-02-28T10:21:38;102978.50;;;7.17;36.33
9695;BME280;4690;52.422;13.486;2023-02-28T10:24:43;102976.19;;;6.75;38.08
9695;BME280;4690;52.422;13.486;2023-02-28T10:27:19;102982.25;;;6.59;39.47
9695;BME280;4690;52.422;13.486;2023-02-28T10:30:00;102976.38;;;6.44;40.56
9695;BME280;4690;52.422;13.486;2023-02-28T10:32:32;102976.09;;;6.47;39.50
9695;BME280;4690;52.422;13.486;2023-02-28T10:35:18;102974.25;;;6.48;39.32
9695;BME280;4690;52.422;13.486;2023-02-28T10:37:51;102983.81;;;6.71;39.27
9695;BME280;4690;52.422;13.486;2023-02-28T10:42:58;102982.59;;;7.40;37.53
9695;BME280;4690;52.422;13.486;2023-02-28T10:45:28;102977.47;;;7.28;36.39
9695;BME280;4690;52.422;13.486;2023-02-28T10:48:27;102981.59;;;7.04;39.13
9695;BME280;4690;52.422;13.486;2023-02-28T10:50:55;102971.66;;;7.03;38.63
9695;BME280;4690;52.422;13.486;2023-02-28T10:56:16;102962.25;;;8.16;35.81
9695;BME280;4690;52.422;13.486;2023-02-28T10:59:26;102969.28;;;8.37;34.89
9695;BME280;4690;52.422;13.486;2023-02-28T11:01:52;102955.91;;;8.69;34.31
9695;BME280;4690;52.422;13.486;2023-02-28T11:07:18;102959.88;;;8.75;33.93
9695;BME280;4690;52.422;13.486;2023-02-28T11:09:49;102954.72;;;8.46;34.27
9695;BME280;4690;52.422;13.486;2023-02-28T11:12:42;102950.78;;;9.27;33.60
9695;BME280;4690;52.422;13.486;2023-02-28T11:15:27;102944.31;;;9.86;31.48
9695;BME280;4690;52.422;13.486;2023-02-28T11:20:38;102932.53;;;11.32;30.73
9695;BME280;4690;52.422;13.486;2023-02-28T11:23:12;102930.38;;;11.81;30.04
9695;BME280;4690;52.422;13.486;2023-02-28T11:25:39;102928.09;;;11.62;29.37
9695;BME280;4690;52.422;13.486;2023-02-28T11:28:25;102922.78;;;11.29;29.13
9695;BME280;4690;52.422;13.486;2023-02-28T11:36:20;102916.13;;;12.70;27.46
9695;BME280;4690;52.422;13.486;2023-02-28T11:38:48;102922.00;;;13.11;26.65
9695;BME280;4690;52.422;13.486;2023-02-28T11:47:00;102925.16;;;14.32;25.75
9695;BME280;4690;52.422;13.486;2023-02-28T11:50:16;102916.47;;;14.85;24.72
9695;BME280;4690;52.422;13.486;2023-02-28T11:52:45;102916.81;;;14.04;25.22
9695;BME280;4690;52.422;13.486;2023-02-28T11:58:45;102919.06;;;13.42;26.67
9695;BME280;4690;52.422;13.486;2023-02-28T12:04:40;102918.91;;;14.23;26.05
9695;BME280;4690;52.422;13.486;2023-02-28T12:07:49;102915.56;;;13.34;26.37
9695;BME280;4690;52.422;13.486;2023-02-28T12:10:26;102916.63;;;13.33;27.09
9695;BME280;4690;52.422;13.486;2023-02-28T12:13:20;102917.94;;;13.07;27.68
9695;BME280;4690;52.422;13.486;2023-02-28T12:22:32;102907.09;;;13.86;25.24
9695;BME280;4690;52.422;13.486;2023-02-28T12:25:31;102904.56;;;13.19;25.96
9695;BME280;4690;52.422;13.486;2023-02-28T12:28:04;102904.91;;;13.82;25.94
9695;BME280;4690;52.422;13.486;2023-02-28T12:30:35;102903.16;;;13.74;26.79
9695;BME280;4690;52.422;13.486;2023-02-28T12:33:14;102891.22;;;13.88;25.78
9695;BME280;4690;52.422;13.486;2023-02-28T12:35:54;102888.44;;;13.31;26.15
9695;BME280;4690;52.422;13.486;2023-02-28T12:38:24;102885.28;;;12.89;26.57
9695;BME280;4690;52.422;13.486;2023-02-28T12:41:02;102869.53;;;12.53;27.58
9695;BME280;4690;52.422;13.486;2023-02-28T12:43:41;102876.63;;;11.87;28.83
9695;BME280;4690;52.422;13.486;2023-02-28T12:46:26;102872.91;;;12.41;28.62
9695;BME280;4690;52.422;13.486;2023-02-28T12:49:02;102868.13;;;13.02;26.71
9695;BME280;4690;52.422;13.486;2023-02-28T12:51:32;102859.81;;;13.68;26.08
9695;BME280;4690;52.422;13.486;2023-02-28T12:56:54;102838.00;;;13.30;26.54
9695;BME280;4690;52.422;13.486;2023-02-28T12:59:56;102831.03;;;12.98;27.51
9695;BME280;4690;52.422;13.486;2023-02-28T13:11:32;102831.34;;;13.24;27.04
9695;BME280;4690;52.422;13.486;2023-02-28T13:14:05;102822.72;;;13.85;25.63
9695;BME280;4690;52.422;13.486;2023-02-28T13:16:59;102829.19;;;14.27;24.52
9695;BME280;4690;52.422;13.486;2023-02-28T13:19:31;102832.19;;;13.40;25.59
9695;BME280;4690;52.422;13.486;2023-02-28T13:21:59;102823.09;;;13.24;27.17
9695;BME280;4690;52.422;13.486;2023-02-28T13:24:47;102830.88;;;13.36;27.66
9695;BME280;4690;52.422;13.486;2023-02-28T13:29:44;102829.44;;;13.40;27.41
9695;BME280;4690;52.422;13.486;2023-02-28T13:34:41;102823.81;;;13.70;26.47
9695;BME280;4690;52.422;13.486;2023-02-28T13:39:49;102823.59;;;13.71;25.86
9695;BME280;4690;52.422;13.486;2023-02-28T13:48:00;102831.00;;;11.78;28.72
9695;BME280;4690;52.422;13.486;2023-02-28T13:56:04;102816.50;;;12.45;28.01
9695;BME280;4690;52.422;13.486;2023-02-28T13:59:35;102815.66;;;12.74;26.58
9695;BME280;4690;52.422;13.486;2023-02-28T14:02:30;102800.19;;;12.88;27.11
9695;BME280;4690;52.422;13.486;2023-02-28T14:05:14;102802.56;;;11.94;27.99
9695;BME280;4690;52.422;13.486;2023-02-28T14:07:54;102801.81;;;11.77;28.15
9695;BME280;4690;52.422;13.486;2023-02-28T14:10:31;102806.47;;;11.53;28.39
9695;BME280;4690;52.422;13.486;2023-02-28T14:16:04;102798.06;;;11.55;28.78
9695;BME280;4690;52.422;13.486;2023-02-28T14:18:37;102791.34;;;11.80;29.31
9695;BME280;4690;52.422;13.486;2023-02-28T14:21:31;102795.00;;;11.73;28.27
9695;BME280;4690;52.422;13.486;2023-02-28T14:30:32;102802.19;;;11.51;29.38
9695;BME280;4690;52.422;13.486;2023-02-28T14:33:27;102807.88;;;11.49;28.94
9695;BME280;4690;52.422;13.486;2023-02-28T14:36:14;102802.81;;;11.07;28.95
9695;BME280;4690;52.422;13.486;2023-02-28T14:39:07;102805.69;;;10.82;29.25
9695;BME280;4690;52.422;13.486;2023-02-28T14:41:40;102790.00;;;10.60;30.23
9695;BME280;4690;52.422;13.486;2023-02-28T14:44:32;102797.56;;;10.89;30.16
9695;BME280;4690;52.422;13.486;2023-02-28T14:47:01;102794.41;;;11.08;29.55
9695;BME280;4690;52.422;13.486;2023-02-28T14:49:43;102791.09;;;10.82;29.36
9695;BME280;4690;52.422;13.486;2023-02-28T14:52:20;102797.78;;;10.15;31.31
9695;BME280;4690;52.422;13.486;2023-02-28T14:54:56;102792.09;;;10.33;31.05
9695;BME280;4690;52.422;13.486;2023-02-28T14:57:31;102785.44;;;10.19;31.16
9695;BME280;4690;52.422;13.486;2023-02-28T15:00:15;102791.81;;;10.03;31.65
9695;BME280;4690;52.422;13.486;2023-02-28T15:02:43;102793.00;;;10.34;31.71
9695;BME280;4690;52.422;13.486;2023-02-28T15:07:48;102793.19;;;9.91;32.14
9695;BME280;4690;52.422;13.486;2023-02-28T15:10:25;102787.19;;;9.55;32.66
9695;BME280;4690;52.422;13.486;2023-02-28T15:12:58;102789.06;;;9.46;33.11
9695;BME280;4690;52.422;13.486;2023-02-28T15:15:54;102790.53;;;9.16;33.08
9695;BME280;4690;52.422;13.486;2023-02-28T15:18:44;102791.81;;;8.53;34.52
9695;BME280;4690;52.422;13.486;2023-02-28T15:21:20;102789.50;;;8.66;34.80
9695;BME280;4690;52.422;13.486;2023-02-28T15:26:33;102779.69;;;8.98;33.96
9695;BME280;4690;52.422;13.486;2023-02-28T15:29:07;102780.63;;;8.72;33.83
9695;BME280;4690;52.422;13.486;2023-02-28T15:31:45;102776.31;;;8.53;34.78
9695;BME280;4690;52.422;13.486;2023-02-28T15:34:27;102767.09;;;8.28;34.90
9695;BME280;4690;52.422;13.486;2023-02-28T15:36:54;102781.34;;;8.14;35.23
9695;BME280;4690;52.422;13.486;2023-02-28T15:39:27;102778.69;;;8.04;35.92
9695;BME280;4690;52.422;13.486;2023-02-28T15:42:19;102787.31;;;7.74;37.08
9695;BME280;4690;52.422;13.486;2023-02-28T15:44:46;102779.47;;;7.71;37.37